createdAt,value
2023-06-07T00:00:50.535Z,18.55
2023-06-07T00:01:50.556Z,18.49
2023-06-07T00:02:50.574Z,18.46
2023-06-07T00:03:51.952Z,18.42
2023-06-07T00:04:51.109Z,18.36
2023-06-07T00:05:50.514Z,18.34
2023-06-07T00:06:50.487Z,18.33
2023-06-07T00:07:50.504Z,18.34
2023-06-07T00:08:50.439Z,18.31
2023-06-07T00:09:50.618Z,18.33
2023-06-07T00:10:50.436Z,18.33
2023-06-07T00:11:50.474Z,18.37
2023-06-07T00:12:50.428Z,18.34
2023-06-07T00:13:50.368Z,18.36
2023-06-07T00:14:50.358Z,18.39
2023-06-07T00:15:50.685Z,18.39
2023-06-07T00:16:50.428Z,18.37
2023-06-07T00:17:50.494Z,18.36
2023-06-07T00:18:50.289Z,18.37
2023-06-07T00:19:50.376Z,18.42
2023-06-07T00:20:50.296Z,18.46
2023-06-07T00:21:50.300Z,18.53
2023-06-07T00:22:50.314Z,18.60
2023-06-07T00:23:50.400Z,18.61
2023-06-07T00:24:50.430Z,18.61
2023-06-07T00:25:50.291Z,18.64
2023-06-07T00:26:50.225Z,18.68
2023-06-07T00:27:50.222Z,18.68
2023-06-07T00:28:50.824Z,18.68
2023-06-07T00:29:50.233Z,18.66
2023-06-07T00:30:50.160Z,18.67
2023-06-07T00:31:50.162Z,18.67
2023-06-07T00:32:50.141Z,18.68
2023-06-07T00:33:50.166Z,18.70
2023-06-07T00:34:51.000Z,18.68
2023-06-07T00:35:50.156Z,18.70
2023-06-07T00:36:50.075Z,18.73
2023-06-07T00:37:50.083Z,18.73
2023-06-07T00:38:50.073Z,18.68
2023-06-07T00:39:50.086Z,18.57
2023-06-07T00:40:50.306Z,18.51
2023-06-07T00:41:50.093Z,18.41
2023-06-07T00:42:50.037Z,18.33
2023-06-07T00:43:50.513Z,18.26
2023-06-07T00:44:50.014Z,18.21
2023-06-07T00:45:50.010Z,18.16
2023-06-07T00:46:50.165Z,18.16
2023-06-07T00:47:50.198Z,18.15
2023-06-07T00:48:50.233Z,18.13
2023-06-07T00:49:49.979Z,18.09
2023-06-07T00:50:49.949Z,18.03
2023-06-07T00:51:49.984Z,17.98
2023-06-07T00:52:50.375Z,17.91
2023-06-07T00:53:50.085Z,17.86
2023-06-07T00:54:50.006Z,17.82
2023-06-07T00:55:49.901Z,17.80
2023-06-07T00:56:49.941Z,17.80
2023-06-07T00:57:49.905Z,17.82
2023-06-07T00:58:50.315Z,17.79
2023-06-07T00:59:49.953Z,17.78
2023-06-07T01:00:49.908Z,17.75
2023-06-07T01:01:49.935Z,17.73
2023-06-07T01:02:50.046Z,17.75
2023-06-07T01:03:50.038Z,17.71
2023-06-07T01:04:49.940Z,17.71
2023-06-07T01:05:49.843Z,17.71
2023-06-07T01:06:49.781Z,17.69
2023-06-07T01:07:49.790Z,17.69
2023-06-07T01:08:49.790Z,17.68
2023-06-07T01:09:51.029Z,17.75
2023-06-07T01:10:49.789Z,17.75
2023-06-07T01:11:49.710Z,17.79
2023-06-07T01:12:49.712Z,17.80
2023-06-07T01:13:49.706Z,17.84
2023-06-07T01:14:49.722Z,17.84
2023-06-07T01:15:49.815Z,17.80
2023-06-07T01:16:49.989Z,17.78
2023-06-07T01:17:49.661Z,17.75
2023-06-07T01:18:49.657Z,17.75
2023-06-07T01:19:49.634Z,17.75
2023-06-07T01:20:49.669Z,17.71
2023-06-07T01:21:49.681Z,17.71
2023-06-07T01:22:49.680Z,17.66
2023-06-07T01:23:49.618Z,17.66
2023-06-07T01:24:49.675Z,17.65
2023-06-07T01:25:49.601Z,17.60
2023-06-07T01:26:49.593Z,17.57
2023-06-07T01:27:49.588Z,17.56
2023-06-07T01:28:49.701Z,17.56
2023-06-07T01:29:49.526Z,17.54
2023-06-07T01:30:49.531Z,17.54
2023-06-07T01:31:49.643Z,17.56
2023-06-07T01:32:49.551Z,17.54
2023-06-07T01:33:49.568Z,17.53
2023-06-07T01:34:49.534Z,17.54
2023-06-07T01:35:49.872Z,17.54
2023-06-07T01:36:49.474Z,17.53
2023-06-07T01:37:49.708Z,17.54
2023-06-07T01:38:49.502Z,17.57
2023-06-07T01:39:49.566Z,17.60
2023-06-07T01:40:49.489Z,17.60
2023-06-07T01:41:49.480Z,17.63
2023-06-07T01:42:49.511Z,17.57
2023-06-07T01:43:49.467Z,17.53
2023-06-07T01:44:49.442Z,17.53
2023-06-07T01:45:49.530Z,17.52
2023-06-07T01:46:49.515Z,17.50
2023-06-07T01:47:49.531Z,17.50
2023-06-07T01:48:49.523Z,17.49
2023-06-07T01:49:49.531Z,17.47
2023-06-07T01:50:49.338Z,17.46
2023-06-07T01:51:49.366Z,17.41
2023-06-07T01:52:49.323Z,17.38
2023-06-07T01:53:49.386Z,17.38
2023-06-07T01:54:49.336Z,17.37
2023-06-07T01:55:49.384Z,17.34
2023-06-07T01:56:49.297Z,17.37
2023-06-07T01:57:49.309Z,17.37
2023-06-07T01:58:49.263Z,17.38
2023-06-07T01:59:49.220Z,17.41
2023-06-07T02:00:49.307Z,17.38
2023-06-07T02:01:49.258Z,17.37
2023-06-07T02:02:49.283Z,17.37
2023-06-07T02:03:49.366Z,17.39
2023-06-07T02:04:49.244Z,17.39
2023-06-07T02:05:49.149Z,17.38
2023-06-07T02:06:49.244Z,17.38
2023-06-07T02:07:49.164Z,17.35
2023-06-07T02:08:49.090Z,17.37
2023-06-07T02:09:49.137Z,17.37
2023-06-07T02:10:49.093Z,17.35
2023-06-07T02:11:49.073Z,17.37
2023-06-07T02:12:49.192Z,17.38
2023-06-07T02:13:49.063Z,17.37
2023-06-07T02:14:49.170Z,17.39
2023-06-07T02:15:49.075Z,17.41
2023-06-07T02:16:49.045Z,17.41
2023-06-07T02:17:49.121Z,17.41
2023-06-07T02:18:49.028Z,17.38
2023-06-07T02:19:49.032Z,17.37
2023-06-07T02:20:49.020Z,17.35
2023-06-07T02:21:48.974Z,17.34
2023-06-07T02:22:48.953Z,17.32
2023-06-07T02:23:48.970Z,17.31
2023-06-07T02:24:48.957Z,17.31
2023-06-07T02:25:48.970Z,17.31
2023-06-07T02:26:48.931Z,17.31
2023-06-07T02:27:49.028Z,17.30
2023-06-07T02:28:48.993Z,17.27
2023-06-07T02:29:48.905Z,17.27
2023-06-07T02:30:48.902Z,17.27
2023-06-07T02:31:48.906Z,17.27
2023-06-07T02:32:48.897Z,17.28
2023-06-07T02:33:48.853Z,17.31
2023-06-07T02:34:48.911Z,17.34
2023-06-07T02:35:48.834Z,17.34
2023-06-07T02:36:49.556Z,17.35
2023-06-07T02:37:51.103Z,17.32
2023-06-07T02:38:51.178Z,17.31
2023-06-07T02:39:48.833Z,17.28
2023-06-07T02:40:48.766Z,17.24
2023-06-07T02:41:48.773Z,17.24
2023-06-07T02:42:48.885Z,17.24
2023-06-07T02:43:48.854Z,17.24
2023-06-07T02:44:48.772Z,17.27
2023-06-07T02:45:48.771Z,17.30
2023-06-07T02:46:48.742Z,17.30
2023-06-07T02:47:48.734Z,17.30
2023-06-07T02:48:48.876Z,17.31
2023-06-07T02:49:48.691Z,17.32
2023-06-07T02:50:48.689Z,17.32
2023-06-07T02:51:48.693Z,17.34
2023-06-07T02:52:48.713Z,17.34
2023-06-07T02:53:48.662Z,17.35
2023-06-07T02:54:48.755Z,17.34
2023-06-07T02:55:48.686Z,17.35
2023-06-07T02:56:48.632Z,17.34
2023-06-07T02:57:48.632Z,17.34
2023-06-07T02:58:48.654Z,17.34
2023-06-07T02:59:48.659Z,17.35
2023-06-07T03:00:48.683Z,17.35
2023-06-07T03:01:50.395Z,17.34
2023-06-07T03:02:48.647Z,17.31
2023-06-07T03:03:48.601Z,17.24
2023-06-07T03:04:48.599Z,17.23
2023-06-07T03:05:48.487Z,17.23
2023-06-07T03:06:48.531Z,17.22
2023-06-07T03:07:48.495Z,17.20
2023-06-07T03:08:49.084Z,17.19
2023-06-07T03:09:49.068Z,17.17
2023-06-07T03:10:48.869Z,17.17
2023-06-07T03:11:48.426Z,17.16
2023-06-07T03:12:48.453Z,17.14
2023-06-07T03:13:48.505Z,17.14
2023-06-07T03:14:48.450Z,17.14
2023-06-07T03:15:48.449Z,17.16
2023-06-07T03:16:48.548Z,17.14
2023-06-07T03:17:48.549Z,17.12
2023-06-07T03:18:48.668Z,17.12
2023-06-07T03:19:48.395Z,17.13
2023-06-07T03:20:48.505Z,17.14
2023-06-07T03:21:48.487Z,17.13
2023-06-07T03:22:48.400Z,17.12
2023-06-07T03:23:48.390Z,17.13
2023-06-07T03:24:48.325Z,17.14
2023-06-07T03:25:48.480Z,17.17
2023-06-07T03:26:48.310Z,17.19
2023-06-07T03:27:48.318Z,17.20
2023-06-07T03:28:48.341Z,17.22
2023-06-07T03:29:48.310Z,17.19
2023-06-07T03:30:48.485Z,17.19
2023-06-07T03:31:48.369Z,17.16
2023-06-07T03:32:48.377Z,17.14
2023-06-07T03:33:48.377Z,17.14
2023-06-07T03:34:48.281Z,17.12
2023-06-07T03:35:48.236Z,17.13
2023-06-07T03:36:48.344Z,17.10
2023-06-07T03:37:48.176Z,17.13
2023-06-07T03:38:48.255Z,17.14
2023-06-07T03:39:48.219Z,17.14
2023-06-07T03:40:48.113Z,17.14
2023-06-07T03:41:48.128Z,17.17
2023-06-07T03:42:48.437Z,17.17
2023-06-07T03:43:48.137Z,17.17
2023-06-07T03:44:48.143Z,17.14
2023-06-07T03:45:48.858Z,17.12
2023-06-07T03:46:48.160Z,17.07
2023-06-07T03:47:48.081Z,16.99
2023-06-07T03:48:50.308Z,16.97
2023-06-07T03:49:48.059Z,16.94
2023-06-07T03:50:50.936Z,16.92
2023-06-07T03:51:48.081Z,16.94
2023-06-07T03:52:48.039Z,16.97
2023-06-07T03:53:48.049Z,16.97
2023-06-07T03:54:48.011Z,16.97
2023-06-07T03:55:48.036Z,16.97
2023-06-07T03:56:48.223Z,16.95
2023-06-07T03:57:48.016Z,16.94
2023-06-07T03:58:48.029Z,16.94
2023-06-07T03:59:48.018Z,16.91
2023-06-07T04:00:48.457Z,16.87
2023-06-07T04:01:47.980Z,16.89
2023-06-07T04:02:48.052Z,16.87
2023-06-07T04:03:48.113Z,16.83
2023-06-07T04:04:48.074Z,16.83
2023-06-07T04:05:47.966Z,16.80
2023-06-07T04:06:47.992Z,16.82
2023-06-07T04:07:47.975Z,16.82
2023-06-07T04:08:48.801Z,16.84
2023-06-07T04:09:48.496Z,16.84
2023-06-07T04:10:48.720Z,16.83
2023-06-07T04:11:48.622Z,16.82
2023-06-07T04:12:47.913Z,16.79
2023-06-07T04:13:48.428Z,16.79
2023-06-07T04:14:47.921Z,16.80
2023-06-07T04:15:48.642Z,16.80
2023-06-07T04:16:47.902Z,16.82
2023-06-07T04:17:47.845Z,16.80
2023-06-07T04:18:47.838Z,16.82
2023-06-07T04:19:51.531Z,16.80
2023-06-07T04:20:47.859Z,16.80
2023-06-07T04:21:47.868Z,16.79
2023-06-07T04:22:47.771Z,16.79
2023-06-07T04:23:47.719Z,16.79
2023-06-07T04:24:48.549Z,16.82
2023-06-07T04:25:47.816Z,16.84
2023-06-07T04:26:47.699Z,16.86
2023-06-07T04:27:47.710Z,16.84
2023-06-07T04:28:47.646Z,16.83
2023-06-07T04:29:47.643Z,16.84
2023-06-07T04:30:47.622Z,16.83
2023-06-07T04:31:47.686Z,16.84
2023-06-07T04:32:47.736Z,16.87
2023-06-07T04:33:47.645Z,16.89
2023-06-07T04:34:47.638Z,16.91
2023-06-07T04:35:47.646Z,16.89
2023-06-07T04:36:47.553Z,16.87
2023-06-07T04:37:47.658Z,16.89
2023-06-07T04:38:57.784Z,16.89
2023-06-07T04:39:47.548Z,16.89
2023-06-07T04:40:47.475Z,16.89
2023-06-07T04:41:47.678Z,16.89
2023-06-07T04:42:47.533Z,16.91
2023-06-07T04:43:47.496Z,16.89
2023-06-07T04:44:47.444Z,16.86
2023-06-07T04:45:47.468Z,16.82
2023-06-07T04:46:47.516Z,16.80
2023-06-07T04:47:47.461Z,16.79
2023-06-07T04:48:47.468Z,16.76
2023-06-07T04:49:47.508Z,16.74
2023-06-07T04:50:47.434Z,16.73
2023-06-07T04:51:47.488Z,16.69
2023-06-07T04:52:47.466Z,16.64
2023-06-07T04:53:47.492Z,16.59
2023-06-07T04:54:47.419Z,16.61
2023-06-07T04:55:47.372Z,16.61
2023-06-07T04:56:47.415Z,16.61
2023-06-07T04:57:47.319Z,16.62
2023-06-07T04:58:47.435Z,16.62
2023-06-07T04:59:47.504Z,16.64
2023-06-07T05:00:47.317Z,16.59
2023-06-07T05:01:47.277Z,16.55
2023-06-07T05:02:47.270Z,16.54
2023-06-07T05:03:47.283Z,16.51
2023-06-07T05:04:47.255Z,16.51
2023-06-07T05:05:47.390Z,16.51
2023-06-07T05:06:47.273Z,16.55
2023-06-07T05:07:47.274Z,16.55
2023-06-07T05:08:47.196Z,16.59
2023-06-07T05:09:47.278Z,16.59
2023-06-07T05:10:47.216Z,16.64
2023-06-07T05:11:47.220Z,16.64
2023-06-07T05:12:47.123Z,16.65
2023-06-07T05:13:47.289Z,16.66
2023-06-07T05:14:47.131Z,16.68
2023-06-07T05:15:48.078Z,16.69
2023-06-07T05:16:48.587Z,16.69
2023-06-07T05:17:47.290Z,16.72
2023-06-07T05:18:47.173Z,16.72
2023-06-07T05:19:47.071Z,16.69
2023-06-07T05:20:47.128Z,16.69
2023-06-07T05:21:47.392Z,16.68
2023-06-07T05:22:47.084Z,16.72
2023-06-07T05:23:47.006Z,16.72
2023-06-07T05:24:47.094Z,16.73
2023-06-07T05:25:46.991Z,16.73
2023-06-07T05:26:46.970Z,16.73
2023-06-07T05:27:53.959Z,16.72
2023-06-07T05:28:46.908Z,16.73
2023-06-07T05:29:46.927Z,16.73
2023-06-07T05:30:46.895Z,16.73
2023-06-07T05:31:47.073Z,16.73
2023-06-07T05:32:47.389Z,16.74
2023-06-07T05:33:46.946Z,16.72
2023-06-07T05:34:47.567Z,16.69
2023-06-07T05:35:46.946Z,16.68
2023-06-07T05:36:47.904Z,16.68
2023-06-07T05:37:46.851Z,16.69
2023-06-07T05:38:47.391Z,16.72
2023-06-07T05:39:47.092Z,16.72
2023-06-07T05:40:46.924Z,16.73
2023-06-07T05:41:46.802Z,16.74
2023-06-07T05:42:46.895Z,16.74
2023-06-07T05:43:46.840Z,16.74
2023-06-07T05:44:46.948Z,16.73
2023-06-07T05:45:46.826Z,16.68
2023-06-07T05:46:46.893Z,16.65
2023-06-07T05:47:46.810Z,16.62
2023-06-07T05:48:46.877Z,16.61
2023-06-07T05:49:46.845Z,16.58
2023-06-07T05:50:46.784Z,16.58
2023-06-07T05:51:46.760Z,16.58
2023-06-07T05:52:46.686Z,16.58
2023-06-07T05:53:46.764Z,16.58
2023-06-07T05:54:46.763Z,16.57
2023-06-07T05:55:46.810Z,16.58
2023-06-07T05:56:46.593Z,16.58
2023-06-07T05:57:46.592Z,16.59
2023-06-07T05:58:46.612Z,16.59
2023-06-07T05:59:46.706Z,16.59
2023-06-07T06:00:46.622Z,16.58
2023-06-07T06:01:46.623Z,16.55
2023-06-07T06:02:46.761Z,16.54
2023-06-07T06:03:46.655Z,16.54
2023-06-07T06:04:46.599Z,16.54
2023-06-07T06:05:46.539Z,16.55
2023-06-07T06:06:46.548Z,16.55
2023-06-07T06:07:46.660Z,16.57
2023-06-07T06:08:46.546Z,16.58
2023-06-07T06:09:46.546Z,16.58
2023-06-07T06:10:46.485Z,16.51
2023-06-07T06:11:46.517Z,16.50
2023-06-07T06:12:46.584Z,16.47
2023-06-07T06:13:46.631Z,16.47
2023-06-07T06:14:46.524Z,16.49
2023-06-07T06:15:46.554Z,16.49
2023-06-07T06:16:46.472Z,16.50
2023-06-07T06:17:46.496Z,16.51
2023-06-07T06:18:46.528Z,16.54
2023-06-07T06:19:46.506Z,16.54
2023-06-07T06:20:46.466Z,16.54
2023-06-07T06:21:46.488Z,16.51
2023-06-07T06:22:46.934Z,16.51
2023-06-07T06:23:46.556Z,16.50
2023-06-07T06:24:46.392Z,16.51
2023-06-07T06:25:46.361Z,16.54
2023-06-07T06:26:46.458Z,16.55
2023-06-07T06:27:46.381Z,16.57
2023-06-07T06:28:46.281Z,16.57
2023-06-07T06:29:46.736Z,16.59
2023-06-07T06:30:47.399Z,16.58
2023-06-07T06:31:47.156Z,16.59
2023-06-07T06:32:46.357Z,16.59
2023-06-07T06:33:47.726Z,16.58
2023-06-07T06:34:46.251Z,16.57
2023-06-07T06:35:46.250Z,16.50
2023-06-07T06:36:46.952Z,16.49
2023-06-07T06:37:46.243Z,16.47
2023-06-07T06:38:46.171Z,16.44
2023-06-07T06:39:46.178Z,16.44
2023-06-07T06:40:46.192Z,16.46
2023-06-07T06:41:46.199Z,16.43
2023-06-07T06:42:46.188Z,16.41
2023-06-07T06:43:46.157Z,16.41
2023-06-07T06:44:46.105Z,16.43
2023-06-07T06:45:46.090Z,16.44
2023-06-07T06:46:46.098Z,16.41
2023-06-07T06:47:46.102Z,16.41
2023-06-07T06:48:53.024Z,16.40
2023-06-07T06:49:46.100Z,16.40
2023-06-07T06:50:46.048Z,16.39
2023-06-07T06:51:46.320Z,16.40
2023-06-07T06:52:46.018Z,16.39
2023-06-07T06:53:46.035Z,16.36
2023-06-07T06:54:45.983Z,16.32
2023-06-07T06:55:46.047Z,16.31
2023-06-07T06:56:45.977Z,16.32
2023-06-07T06:57:45.954Z,16.31
2023-06-07T06:58:45.958Z,16.31
2023-06-07T06:59:47.637Z,16.29
2023-06-07T07:00:45.933Z,16.29
2023-06-07T07:01:46.015Z,16.26
2023-06-07T07:02:45.991Z,16.26
2023-06-07T07:03:45.953Z,16.28
2023-06-07T07:04:46.384Z,16.25
2023-06-07T07:05:45.906Z,16.25
2023-06-07T07:06:45.924Z,16.24
2023-06-07T07:07:45.928Z,16.24
2023-06-07T07:08:45.947Z,16.25
2023-06-07T07:09:45.833Z,16.25
2023-06-07T07:10:45.870Z,16.25
2023-06-07T07:11:45.879Z,16.22
2023-06-07T07:12:45.864Z,16.21
2023-06-07T07:13:45.890Z,16.22
2023-06-07T07:14:45.784Z,16.21
2023-06-07T07:15:45.869Z,16.22
2023-06-07T07:16:45.829Z,16.24
2023-06-07T07:17:45.889Z,16.24
2023-06-07T07:18:45.895Z,16.22
2023-06-07T07:19:45.774Z,16.21
2023-06-07T07:20:45.827Z,16.22
2023-06-07T07:21:45.852Z,16.24
2023-06-07T07:22:45.793Z,16.22
2023-06-07T07:23:45.765Z,16.25
2023-06-07T07:24:45.665Z,16.25
2023-06-07T07:25:45.740Z,16.25
2023-06-07T07:26:45.927Z,16.26
2023-06-07T07:27:45.743Z,16.24
2023-06-07T07:28:45.860Z,16.25
2023-06-07T07:29:45.692Z,16.25
2023-06-07T07:30:45.588Z,16.25
2023-06-07T07:31:46.205Z,16.26
2023-06-07T07:32:45.822Z,16.24
2023-06-07T07:33:46.024Z,16.22
2023-06-07T07:34:45.666Z,16.21
2023-06-07T07:35:45.664Z,16.21
2023-06-07T07:36:46.260Z,16.21
2023-06-07T07:37:48.111Z,16.18
2023-06-07T07:38:45.632Z,16.21
2023-06-07T07:39:45.559Z,16.22
2023-06-07T07:40:45.605Z,16.22
2023-06-07T07:41:45.588Z,16.18
2023-06-07T07:42:45.570Z,16.17
2023-06-07T07:43:45.579Z,16.13
2023-06-07T07:44:45.565Z,16.13
2023-06-07T07:45:45.565Z,16.16
2023-06-07T07:46:45.585Z,16.13
2023-06-07T07:47:45.493Z,16.13
2023-06-07T07:48:45.417Z,16.12
2023-06-07T07:49:45.528Z,16.12
2023-06-07T07:50:45.426Z,16.12
2023-06-07T07:51:45.429Z,16.10
2023-06-07T07:52:45.442Z,16.09
2023-06-07T07:53:45.453Z,16.06
2023-06-07T07:54:45.542Z,16.05
2023-06-07T07:55:45.515Z,16.05
2023-06-07T07:56:45.410Z,16.02
2023-06-07T07:57:46.945Z,16.05
2023-06-07T07:58:45.365Z,16.06
2023-06-07T07:59:46.108Z,16.06
2023-06-07T08:00:45.437Z,16.03
2023-06-07T08:01:45.392Z,16.03
2023-06-07T08:02:45.325Z,16.02
2023-06-07T08:03:45.434Z,16.02
2023-06-07T08:04:45.418Z,16.03
2023-06-07T08:05:45.384Z,16.02
2023-06-07T08:06:45.376Z,16.02
2023-06-07T08:07:45.952Z,16.02
2023-06-07T08:08:45.239Z,16.02
2023-06-07T08:09:45.298Z,16.02
2023-06-07T08:10:45.302Z,16.03
2023-06-07T08:11:45.347Z,16.02
2023-06-07T08:12:45.256Z,16.00
2023-06-07T08:13:45.444Z,16.00
2023-06-07T08:14:45.156Z,15.99
2023-06-07T08:15:45.250Z,15.96
2023-06-07T08:16:45.366Z,15.94
2023-06-07T08:17:45.155Z,15.94
2023-06-07T08:18:45.465Z,15.92
2023-06-07T08:19:45.195Z,15.94
2023-06-07T08:20:45.210Z,15.94
2023-06-07T08:21:45.279Z,15.94
2023-06-07T08:22:45.182Z,15.94
2023-06-07T08:23:45.100Z,15.98
2023-06-07T08:24:45.225Z,15.98
2023-06-07T08:25:45.093Z,15.98
2023-06-07T08:26:45.139Z,15.98
2023-06-07T08:27:45.044Z,15.96
2023-06-07T08:28:45.093Z,15.99
2023-06-07T08:29:45.033Z,15.98
2023-06-07T08:30:45.025Z,15.96
2023-06-07T08:31:45.195Z,15.94
2023-06-07T08:32:45.041Z,15.94
2023-06-07T08:33:45.081Z,15.92
2023-06-07T08:34:44.942Z,15.90
2023-06-07T08:35:44.953Z,15.88
2023-06-07T08:36:45.079Z,15.87
2023-06-07T08:37:44.972Z,15.85
2023-06-07T08:38:44.988Z,15.84
2023-06-07T08:39:44.951Z,15.85
2023-06-07T08:40:44.884Z,15.80
2023-06-07T08:41:44.901Z,15.81
2023-06-07T08:42:44.896Z,15.81
2023-06-07T08:43:44.916Z,15.81
2023-06-07T08:44:44.966Z,15.80
2023-06-07T08:45:44.924Z,15.76
2023-06-07T08:46:44.815Z,15.76
2023-06-07T08:47:44.969Z,15.70
2023-06-07T08:48:44.834Z,15.70
2023-06-07T08:49:44.924Z,15.69
2023-06-07T08:50:46.434Z,15.67
2023-06-07T08:51:44.940Z,15.66
2023-06-07T08:52:44.822Z,15.66
2023-06-07T08:53:44.786Z,15.67
2023-06-07T08:54:44.834Z,15.65
2023-06-07T08:55:44.779Z,15.65
2023-06-07T08:56:44.807Z,15.65
2023-06-07T08:57:44.758Z,15.63
2023-06-07T08:58:44.785Z,15.65
2023-06-07T08:59:44.718Z,15.65
2023-06-07T09:00:44.704Z,15.63
2023-06-07T09:01:44.772Z,15.62
2023-06-07T09:02:44.743Z,15.63
2023-06-07T09:03:44.711Z,15.63
2023-06-07T09:04:44.655Z,15.65
2023-06-07T09:05:44.751Z,15.65
2023-06-07T09:06:44.758Z,15.66
2023-06-07T09:07:44.768Z,15.69
2023-06-07T09:08:44.782Z,15.70
2023-06-07T09:09:44.632Z,15.70
2023-06-07T09:10:45.403Z,15.67
2023-06-07T09:11:44.576Z,15.67
2023-06-07T09:12:44.599Z,15.66
2023-06-07T09:13:44.591Z,15.66
2023-06-07T09:14:44.581Z,15.65
2023-06-07T09:15:44.600Z,15.63
2023-06-07T09:16:44.690Z,15.63
2023-06-07T09:17:44.652Z,15.63
2023-06-07T09:18:44.963Z,15.60
2023-06-07T09:19:44.525Z,15.60
2023-06-07T09:20:45.015Z,15.60
2023-06-07T09:21:44.438Z,15.60
2023-06-07T09:22:44.447Z,15.59
2023-06-07T09:23:44.994Z,15.57
2023-06-07T09:24:44.528Z,15.55
2023-06-07T09:25:44.474Z,15.54
2023-06-07T09:26:44.438Z,15.54
2023-06-07T09:27:44.448Z,15.51
2023-06-07T09:28:44.388Z,15.50
2023-06-07T09:29:44.404Z,15.45
2023-06-07T09:30:44.398Z,15.43
2023-06-07T09:31:44.518Z,15.39
2023-06-07T09:32:44.390Z,15.36
2023-06-07T09:33:44.316Z,15.30
2023-06-07T09:34:45.032Z,15.27
2023-06-07T09:35:44.406Z,15.23
2023-06-07T09:36:47.296Z,15.23
2023-06-07T09:37:46.266Z,15.22
2023-06-07T09:38:45.906Z,15.22
2023-06-07T09:39:46.728Z,15.19
2023-06-07T09:40:44.553Z,15.19
2023-06-07T09:41:47.113Z,15.23
2023-06-07T09:42:46.640Z,15.26
2023-06-07T09:43:46.136Z,15.26
2023-06-07T09:44:47.009Z,15.26
2023-06-07T09:45:45.773Z,15.25
2023-06-07T09:46:45.676Z,15.26
2023-06-07T09:47:46.125Z,15.23
2023-06-07T09:48:44.382Z,15.23
2023-06-07T09:49:44.224Z,15.23
2023-06-07T09:50:44.107Z,15.22
2023-06-07T09:51:44.176Z,15.19
2023-06-07T09:52:44.209Z,15.18
2023-06-07T09:53:44.153Z,15.15
2023-06-07T09:54:44.134Z,15.17
2023-06-07T09:55:44.150Z,15.15
2023-06-07T09:56:44.142Z,15.18
2023-06-07T09:57:44.582Z,15.19
2023-06-07T09:58:44.084Z,15.15
2023-06-07T09:59:44.095Z,15.18
2023-06-07T10:00:44.171Z,15.17
2023-06-07T10:01:44.165Z,15.14
2023-06-07T10:02:44.147Z,15.14
2023-06-07T10:03:44.070Z,15.14
2023-06-07T10:04:44.038Z,15.15
2023-06-07T10:05:43.956Z,15.17
2023-06-07T10:06:43.975Z,15.19
2023-06-07T10:07:44.009Z,15.22
2023-06-07T10:08:43.967Z,15.23
2023-06-07T10:09:43.991Z,15.23
2023-06-07T10:10:43.973Z,15.22
2023-06-07T10:11:43.988Z,15.19
2023-06-07T10:12:43.863Z,15.15
2023-06-07T10:13:43.937Z,15.12
2023-06-07T10:14:43.923Z,15.14
2023-06-07T10:15:43.889Z,15.15
2023-06-07T10:16:43.981Z,15.15
2023-06-07T10:17:43.996Z,15.14
2023-06-07T10:18:44.027Z,15.11
2023-06-07T10:19:43.921Z,15.10
2023-06-07T10:20:43.885Z,15.11
2023-06-07T10:21:43.755Z,15.14
2023-06-07T10:22:43.850Z,15.12
2023-06-07T10:23:43.857Z,15.14
2023-06-07T10:24:43.834Z,15.12
2023-06-07T10:25:43.800Z,15.12
2023-06-07T10:26:43.705Z,15.14
2023-06-07T10:27:43.787Z,15.15
2023-06-07T10:28:43.765Z,15.17
2023-06-07T10:29:44.839Z,15.19
2023-06-07T10:30:43.713Z,15.25
2023-06-07T10:31:43.841Z,15.27
2023-06-07T10:32:43.640Z,15.30
2023-06-07T10:33:43.762Z,15.33
2023-06-07T10:34:43.635Z,15.37
2023-06-07T10:35:43.674Z,15.39
2023-06-07T10:36:43.663Z,15.41
2023-06-07T10:37:43.744Z,15.45
2023-06-07T10:38:43.657Z,15.51
2023-06-07T10:39:43.570Z,15.51
2023-06-07T10:40:43.586Z,15.54
2023-06-07T10:41:43.676Z,15.57
2023-06-07T10:42:43.596Z,15.54
2023-06-07T10:43:43.564Z,15.54
2023-06-07T10:44:43.520Z,15.57
2023-06-07T10:45:43.606Z,15.57
2023-06-07T10:46:43.608Z,15.60
2023-06-07T10:47:43.590Z,15.66
2023-06-07T10:48:43.518Z,15.70
2023-06-07T10:49:43.619Z,15.78
2023-06-07T10:50:43.453Z,15.84
2023-06-07T10:51:43.567Z,15.88
2023-06-07T10:52:43.973Z,15.94
2023-06-07T10:53:43.469Z,15.96
2023-06-07T10:54:43.459Z,15.94
2023-06-07T10:55:43.361Z,15.94
2023-06-07T10:56:43.389Z,15.96
2023-06-07T10:57:43.396Z,15.98
2023-06-07T10:58:43.375Z,15.91
2023-06-07T10:59:43.398Z,15.90
2023-06-07T11:00:43.405Z,15.84
2023-06-07T11:01:43.378Z,15.81
2023-06-07T11:02:43.491Z,15.81
2023-06-07T11:03:43.587Z,15.81
2023-06-07T11:04:43.626Z,15.87
2023-06-07T11:05:43.499Z,15.92
2023-06-07T11:06:43.337Z,16.02
2023-06-07T11:07:43.283Z,16.06
2023-06-07T11:08:43.313Z,16.10
2023-06-07T11:09:43.383Z,16.13
2023-06-07T11:10:43.278Z,16.17
2023-06-07T11:11:43.290Z,16.26
2023-06-07T11:12:43.269Z,16.25
2023-06-07T11:13:43.282Z,16.22
2023-06-07T11:14:43.199Z,16.17
2023-06-07T11:15:43.279Z,16.17
2023-06-07T11:16:43.636Z,16.17
2023-06-07T11:17:43.398Z,16.13
2023-06-07T11:18:43.224Z,16.12
2023-06-07T11:19:43.115Z,16.16
2023-06-07T11:20:43.157Z,16.16
2023-06-07T11:21:43.120Z,16.12
2023-06-07T11:22:43.169Z,16.10
2023-06-07T11:23:43.173Z,16.06
2023-06-07T11:24:45.846Z,16.08
2023-06-07T11:25:43.051Z,16.10
2023-06-07T11:26:43.195Z,16.12
2023-06-07T11:27:43.096Z,16.12
2023-06-07T11:28:43.123Z,16.18
2023-06-07T11:29:43.128Z,16.24
2023-06-07T11:30:43.089Z,16.28
2023-06-07T11:31:43.076Z,16.34
2023-06-07T11:32:43.057Z,16.41
2023-06-07T11:33:43.762Z,16.41
2023-06-07T11:34:43.070Z,16.39
2023-06-07T11:35:43.042Z,16.31
2023-06-07T11:36:42.927Z,16.25
2023-06-07T11:37:42.925Z,16.22
2023-06-07T11:38:43.019Z,16.18
2023-06-07T11:39:43.038Z,16.18
2023-06-07T11:40:43.089Z,16.24
2023-06-07T11:41:43.882Z,16.28
2023-06-07T11:42:42.879Z,16.37
2023-06-07T11:43:42.887Z,16.44
2023-06-07T11:44:42.893Z,16.47
2023-06-07T11:45:42.871Z,16.55
2023-06-07T11:46:42.935Z,16.61
2023-06-07T11:47:42.973Z,16.61
2023-06-07T11:48:43.051Z,16.62
2023-06-07T11:49:42.883Z,16.66
2023-06-07T11:50:43.019Z,16.69
2023-06-07T11:51:42.812Z,16.69
2023-06-07T11:52:42.767Z,16.69
2023-06-07T11:53:42.768Z,16.74
2023-06-07T11:54:42.971Z,16.79
2023-06-07T11:55:42.772Z,16.86
2023-06-07T11:56:42.750Z,16.89
2023-06-07T11:57:42.750Z,16.94
2023-06-07T11:58:42.669Z,16.99
2023-06-07T11:59:42.772Z,17.05
2023-06-07T12:00:42.681Z,17.07
2023-06-07T12:01:42.698Z,17.04
2023-06-07T12:02:43.045Z,17.05
2023-06-07T12:03:45.165Z,17.09
2023-06-07T12:04:42.676Z,17.12
2023-06-07T12:05:42.653Z,17.16
2023-06-07T12:06:42.658Z,17.20
2023-06-07T12:07:42.597Z,17.27
2023-06-07T12:08:43.537Z,17.32
2023-06-07T12:09:42.651Z,17.34
2023-06-07T12:10:42.561Z,17.35
2023-06-07T12:11:42.564Z,17.38
2023-06-07T12:12:42.539Z,17.42
2023-06-07T12:13:42.570Z,17.47
2023-06-07T12:14:42.552Z,17.50
2023-06-07T12:15:42.545Z,17.53
2023-06-07T12:16:42.480Z,17.57
2023-06-07T12:17:42.647Z,17.57
2023-06-07T12:18:42.479Z,17.54
2023-06-07T12:19:42.491Z,17.54
2023-06-07T12:20:42.540Z,17.59
2023-06-07T12:21:42.493Z,17.65
2023-06-07T12:22:42.422Z,17.68
2023-06-07T12:23:42.512Z,17.68
2023-06-07T12:24:42.418Z,17.73
2023-06-07T12:25:42.558Z,17.78
2023-06-07T12:26:42.429Z,17.84
2023-06-07T12:27:42.352Z,17.86
2023-06-07T12:28:42.385Z,17.88
2023-06-07T12:29:42.459Z,17.94
2023-06-07T12:30:42.399Z,18.02
2023-06-07T12:31:42.463Z,18.11
2023-06-07T12:32:42.407Z,18.15
2023-06-07T12:33:42.295Z,18.18
2023-06-07T12:34:42.293Z,18.19
2023-06-07T12:35:42.313Z,18.24
2023-06-07T12:36:42.381Z,18.24
2023-06-07T12:37:42.319Z,18.37
2023-06-07T12:38:42.301Z,18.48
2023-06-07T12:39:42.311Z,18.48
2023-06-07T12:40:42.285Z,18.48
2023-06-07T12:41:42.222Z,18.52
2023-06-07T12:42:42.260Z,18.53
2023-06-07T12:43:42.253Z,18.55
2023-06-07T12:44:42.263Z,18.52
2023-06-07T12:45:42.188Z,18.57
2023-06-07T12:46:42.260Z,18.64
2023-06-07T12:47:42.217Z,18.71
2023-06-07T12:48:42.218Z,18.76
2023-06-07T12:49:42.226Z,18.81
2023-06-07T12:50:42.236Z,18.86
2023-06-07T12:51:42.219Z,18.98
2023-06-07T12:52:42.183Z,18.97